sensor_id;sensor_type;location;lat;lon;timestamp;P1;durP1;ratioP1;P2;durP2;ratioP2
28298;SDS011;15565;52.600;6.456;2022-10-16T00:00:01;9.68;;;1.17;;
28298;SDS011;15565;52.600;6.456;2022-10-16T00:02:49;6.43;;;1.35;;
28298;SDS011;15565;52.600;6.456;2022-10-16T00:05:39;5.13;;;1.13;;
28298;SDS011;15565;52.600;6.456;2022-10-16T00:08:26;6.60;;;1.90;;
28298;SDS011;15565;52.600;6.456;2022-10-16T00:11:16;6.70;;;1.50;;
28298;SDS011;15565;52.600;6.456;2022-10-16T00:14:04;6.63;;;1.35;;
28298;SDS011;15565;52.600;6.456;2022-10-16T00:16:51;6.50;;;1.38;;
28298;SDS011;15565;52.600;6.456;2022-10-16T00:19:38;10.93;;;2.13;;
28298;SDS011;15565;52.600;6.456;2022-10-16T00:22:25;11.82;;;1.67;;
28298;SDS011;15565;52.600;6.456;2022-10-16T00:25:12;4.63;;;1.20;;
28298;SDS011;15565;52.600;6.456;2022-10-16T00:28:01;4.40;;;1.23;;
28298;SDS011;15565;52.600;6.456;2022-10-16T00:30:48;9.07;;;1.35;;
28298;SDS011;15565;52.600;6.456;2022-10-16T00:33:36;5.28;;;1.30;;
28298;SDS011;15565;52.600;6.456;2022-10-16T00:36:24;5.90;;;1.63;;
28298;SDS011;15565;52.600;6.456;2022-10-16T00:39:11;6.10;;;1.35;;
28298;SDS011;15565;52.600;6.456;2022-10-16T00:41:59;3.42;;;1.40;;
28298;SDS011;15565;52.600;6.456;2022-10-16T00:44:48;3.25;;;1.25;;
28298;SDS011;15565;52.600;6.456;2022-10-16T00:47:38;5.22;;;1.60;;
28298;SDS011;15565;52.600;6.456;2022-10-16T00:50:27;8.35;;;1.73;;
28298;SDS011;15565;52.600;6.456;2022-10-16T00:53:15;5.68;;;1.45;;
28298;SDS011;15565;52.600;6.456;2022-10-16T00:56:03;4.35;;;1.40;;
28298;SDS011;15565;52.600;6.456;2022-10-16T00:58:51;8.00;;;1.85;;
28298;SDS011;15565;52.600;6.456;2022-10-16T01:01:39;4.07;;;1.40;;
28298;SDS011;15565;52.600;6.456;2022-10-16T01:04:27;5.85;;;1.38;;
28298;SDS011;15565;52.600;6.456;2022-10-16T01:07:20;3.33;;;1.45;;
28298;SDS011;15565;52.600;6.456;2022-10-16T01:10:12;5.85;;;1.42;;
28298;SDS011;15565;52.600;6.456;2022-10-16T01:13:00;8.63;;;1.85;;
28298;SDS011;15565;52.600;6.456;2022-10-16T01:15:50;3.15;;;1.50;;
28298;SDS011;15565;52.600;6.456;2022-10-16T01:18:42;6.07;;;1.67;;
28298;SDS011;15565;52.600;6.456;2022-10-16T01:21:31;2.92;;;1.60;;
28298;SDS011;15565;52.600;6.456;2022-10-16T01:24:23;7.55;;;1.63;;
28298;SDS011;15565;52.600;6.456;2022-10-16T01:27:13;7.40;;;1.20;;
28298;SDS011;15565;52.600;6.456;2022-10-16T01:30:02;3.75;;;1.50;;
28298;SDS011;15565;52.600;6.456;2022-10-16T01:32:52;4.53;;;1.20;;
28298;SDS011;15565;52.600;6.456;2022-10-16T01:35:43;6.47;;;1.70;;
28298;SDS011;15565;52.600;6.456;2022-10-16T01:38:33;5.00;;;1.30;;
28298;SDS011;15565;52.600;6.456;2022-10-16T01:41:21;9.02;;;1.77;;
28298;SDS011;15565;52.600;6.456;2022-10-16T01:44:11;6.53;;;1.70;;
28298;SDS011;15565;52.600;6.456;2022-10-16T01:47:00;8.00;;;1.40;;
28298;SDS011;15565;52.600;6.456;2022-10-16T01:49:48;6.55;;;1.45;;
28298;SDS011;15565;52.600;6.456;2022-10-16T01:52:36;3.65;;;1.50;;
28298;SDS011;15565;52.600;6.456;2022-10-16T01:55:26;6.90;;;1.58;;
28298;SDS011;15565;52.600;6.456;2022-10-16T01:58:15;8.60;;;1.60;;
28298;SDS011;15565;52.600;6.456;2022-10-16T02:01:04;3.63;;;1.45;;
28298;SDS011;15565;52.600;6.456;2022-10-16T02:03:52;7.30;;;1.45;;
28298;SDS011;15565;52.600;6.456;2022-10-16T02:06:41;5.88;;;1.20;;
28298;SDS011;15565;52.600;6.456;2022-10-16T02:09:28;6.55;;;1.50;;
28298;SDS011;15565;52.600;6.456;2022-10-16T02:12:18;7.82;;;1.70;;
28298;SDS011;15565;52.600;6.456;2022-10-16T02:15:06;8.02;;;1.40;;
28298;SDS011;15565;52.600;6.456;2022-10-16T02:20:43;2.53;;;1.13;;
28298;SDS011;15565;52.600;6.456;2022-10-16T02:23:37;3.80;;;1.25;;
28298;SDS011;15565;52.600;6.456;2022-10-16T02:26:27;4.68;;;1.25;;
28298;SDS011;15565;52.600;6.456;2022-10-16T02:29:20;7.90;;;1.50;;
28298;SDS011;15565;52.600;6.456;2022-10-16T02:32:09;5.57;;;1.67;;
28298;SDS011;15565;52.600;6.456;2022-10-16T02:34:56;3.28;;;1.50;;
28298;SDS011;15565;52.600;6.456;2022-10-16T02:37:46;3.42;;;1.60;;
28298;SDS011;15565;52.600;6.456;2022-10-16T02:40:34;4.15;;;1.90;;
28298;SDS011;15565;52.600;6.456;2022-10-16T02:46:09;5.32;;;1.33;;
28298;SDS011;15565;52.600;6.456;2022-10-16T02:48:56;5.65;;;1.70;;
28298;SDS011;15565;52.600;6.456;2022-10-16T02:51:43;1.60;;;1.40;;
28298;SDS011;15565;52.600;6.456;2022-10-16T02:54:32;7.50;;;1.70;;
28298;SDS011;15565;52.600;6.456;2022-10-16T02:57:19;4.60;;;1.65;;
28298;SDS011;15565;52.600;6.456;2022-10-16T03:00:08;5.88;;;1.58;;
28298;SDS011;15565;52.600;6.456;2022-10-16T03:02:55;5.93;;;1.65;;
28298;SDS011;15565;52.600;6.456;2022-10-16T03:05:43;9.27;;;1.65;;
28298;SDS011;15565;52.600;6.456;2022-10-16T03:08:30;4.32;;;1.75;;
28298;SDS011;15565;52.600;6.456;2022-10-16T03:11:19;3.38;;;1.40;;
28298;SDS011;15565;52.600;6.456;2022-10-16T03:14:06;5.20;;;1.65;;
28298;SDS011;15565;52.600;6.456;2022-10-16T03:16:53;4.50;;;1.25;;
28298;SDS011;15565;52.600;6.456;2022-10-16T03:19:40;6.40;;;1.92;;
28298;SDS011;15565;52.600;6.456;2022-10-16T03:22:27;3.38;;;1.50;;
28298;SDS011;15565;52.600;6.456;2022-10-16T03:25:14;5.15;;;1.55;;
28298;SDS011;15565;52.600;6.456;2022-10-16T03:28:03;7.30;;;1.95;;
28298;SDS011;15565;52.600;6.456;2022-10-16T03:30:50;7.38;;;1.52;;
28298;SDS011;15565;52.600;6.456;2022-10-16T03:33:37;7.10;;;1.83;;
28298;SDS011;15565;52.600;6.456;2022-10-16T03:36:24;10.00;;;1.85;;
28298;SDS011;15565;52.600;6.456;2022-10-16T03:39:11;6.60;;;2.25;;
28298;SDS011;15565;52.600;6.456;2022-10-16T03:41:59;9.32;;;1.90;;
28298;SDS011;15565;52.600;6.456;2022-10-16T03:44:47;7.07;;;2.07;;
28298;SDS011;15565;52.600;6.456;2022-10-16T03:47:34;6.43;;;1.90;;
28298;SDS011;15565;52.600;6.456;2022-10-16T03:50:21;4.63;;;1.83;;
28298;SDS011;15565;52.600;6.456;2022-10-16T03:53:08;5.30;;;1.87;;
28298;SDS011;15565;52.600;6.456;2022-10-16T03:55:55;7.80;;;1.80;;
28298;SDS011;15565;52.600;6.456;2022-10-16T03:58:43;3.92;;;1.98;;
28298;SDS011;15565;52.600;6.456;2022-10-16T04:01:31;5.72;;;1.85;;
28298;SDS011;15565;52.600;6.456;2022-10-16T04:04:18;8.15;;;2.13;;
28298;SDS011;15565;52.600;6.456;2022-10-16T04:07:06;7.07;;;1.75;;
28298;SDS011;15565;52.600;6.456;2022-10-16T04:09:53;3.35;;;1.75;;
28298;SDS011;15565;52.600;6.456;2022-10-16T04:12:42;6.18;;;2.20;;
28298;SDS011;15565;52.600;6.456;2022-10-16T04:15:28;4.95;;;1.55;;
28298;SDS011;15565;52.600;6.456;2022-10-16T04:18:17;4.32;;;1.80;;
28298;SDS011;15565;52.600;6.456;2022-10-16T04:21:04;4.28;;;1.55;;
28298;SDS011;15565;52.600;6.456;2022-10-16T04:23:52;3.00;;;1.83;;
28298;SDS011;15565;52.600;6.456;2022-10-16T04:26:39;3.08;;;1.80;;
28298;SDS011;15565;52.600;6.456;2022-10-16T04:29:26;8.98;;;2.03;;
28298;SDS011;15565;52.600;6.456;2022-10-16T04:32:13;4.55;;;1.67;;
28298;SDS011;15565;52.600;6.456;2022-10-16T04:35:01;4.93;;;1.85;;
28298;SDS011;15565;52.600;6.456;2022-10-16T04:37:48;5.43;;;2.15;;
28298;SDS011;15565;52.600;6.456;2022-10-16T04:40:36;4.40;;;1.75;;
28298;SDS011;15565;52.600;6.456;2022-10-16T04:43:23;4.60;;;1.70;;
28298;SDS011;15565;52.600;6.456;2022-10-16T04:46:10;2.88;;;1.55;;
28298;SDS011;15565;52.600;6.456;2022-10-16T04:48:58;4.60;;;1.83;;
28298;SDS011;15565;52.600;6.456;2022-10-16T04:51:46;2.17;;;1.65;;
28298;SDS011;15565;52.600;6.456;2022-10-16T04:54:33;7.05;;;1.75;;
28298;SDS011;15565;52.600;6.456;2022-10-16T04:57:20;2.53;;;1.50;;
28298;SDS011;15565;52.600;6.456;2022-10-16T05:00:08;14.77;;;2.03;;
28298;SDS011;15565;52.600;6.456;2022-10-16T05:02:55;11.95;;;2.17;;
28298;SDS011;15565;52.600;6.456;2022-10-16T05:05:44;6.38;;;2.38;;
28298;SDS011;15565;52.600;6.456;2022-10-16T05:08:33;3.15;;;1.65;;
28298;SDS011;15565;52.600;6.456;2022-10-16T05:11:21;3.90;;;1.73;;
28298;SDS011;15565;52.600;6.456;2022-10-16T05:14:08;7.75;;;1.90;;
28298;SDS011;15565;52.600;6.456;2022-10-16T05:16:56;3.80;;;1.67;;
28298;SDS011;15565;52.600;6.456;2022-10-16T05:19:43;5.57;;;1.90;;
28298;SDS011;15565;52.600;6.456;2022-10-16T05:22:30;10.88;;;1.58;;
28298;SDS011;15565;52.600;6.456;2022-10-16T05:25:18;3.30;;;1.70;;
28298;SDS011;15565;52.600;6.456;2022-10-16T05:28:06;4.32;;;1.58;;
28298;SDS011;15565;52.600;6.456;2022-10-16T05:30:53;2.97;;;1.50;;
28298;SDS011;15565;52.600;6.456;2022-10-16T05:33:40;3.42;;;1.45;;
28298;SDS011;15565;52.600;6.456;2022-10-16T05:36:29;7.90;;;1.50;;
28298;SDS011;15565;52.600;6.456;2022-10-16T05:39:16;4.18;;;1.60;;
28298;SDS011;15565;52.600;6.456;2022-10-16T05:42:08;2.50;;;1.38;;
28298;SDS011;15565;52.600;6.456;2022-10-16T05:44:55;3.38;;;1.50;;
28298;SDS011;15565;52.600;6.456;2022-10-16T05:47:42;3.25;;;1.30;;
28298;SDS011;15565;52.600;6.456;2022-10-16T05:50:29;11.15;;;1.50;;
28298;SDS011;15565;52.600;6.456;2022-10-16T05:53:16;4.30;;;1.50;;
28298;SDS011;15565;52.600;6.456;2022-10-16T05:56:10;4.35;;;1.50;;
28298;SDS011;15565;52.600;6.456;2022-10-16T05:59:00;5.65;;;1.40;;
28298;SDS011;15565;52.600;6.456;2022-10-16T06:01:47;3.63;;;1.80;;
28298;SDS011;15565;52.600;6.456;2022-10-16T06:04:34;4.70;;;1.48;;
28298;SDS011;15565;52.600;6.456;2022-10-16T06:07:21;4.68;;;1.30;;
28298;SDS011;15565;52.600;6.456;2022-10-16T06:10:09;1.95;;;1.13;;
28298;SDS011;15565;52.600;6.456;2022-10-16T06:12:56;11.27;;;1.70;;
28298;SDS011;15565;52.600;6.456;2022-10-16T06:15:44;6.43;;;1.60;;
28298;SDS011;15565;52.600;6.456;2022-10-16T06:18:31;3.22;;;1.30;;
28298;SDS011;15565;52.600;6.456;2022-10-16T06:21:19;3.83;;;1.15;;
28298;SDS011;15565;52.600;6.456;2022-10-16T06:26:53;2.90;;;1.23;;
28298;SDS011;15565;52.600;6.456;2022-10-16T06:29:40;4.82;;;1.20;;
28298;SDS011;15565;52.600;6.456;2022-10-16T06:32:30;5.78;;;1.52;;
28298;SDS011;15565;52.600;6.456;2022-10-16T06:35:17;1.67;;;1.33;;
28298;SDS011;15565;52.600;6.456;2022-10-16T06:38:04;4.80;;;1.10;;
28298;SDS011;15565;52.600;6.456;2022-10-16T06:40:53;2.63;;;1.20;;
28298;SDS011;15565;52.600;6.456;2022-10-16T06:43:40;2.25;;;1.20;;
28298;SDS011;15565;52.600;6.456;2022-10-16T06:46:27;1.45;;;1.00;;
28298;SDS011;15565;52.600;6.456;2022-10-16T06:49:15;2.38;;;1.35;;
28298;SDS011;15565;52.600;6.456;2022-10-16T06:52:07;5.28;;;1.42;;
28298;SDS011;15565;52.600;6.456;2022-10-16T06:54:54;5.15;;;1.35;;
28298;SDS011;15565;52.600;6.456;2022-10-16T06:57:43;5.00;;;1.50;;
28298;SDS011;15565;52.600;6.456;2022-10-16T07:00:30;3.13;;;1.02;;
28298;SDS011;15565;52.600;6.456;2022-10-16T07:03:17;6.75;;;1.17;;
28298;SDS011;15565;52.600;6.456;2022-10-16T07:06:07;7.97;;;1.35;;
28298;SDS011;15565;52.600;6.456;2022-10-16T07:08:54;5.85;;;1.77;;
28298;SDS011;15565;52.600;6.456;2022-10-16T07:11:42;4.88;;;1.15;;
28298;SDS011;15565;52.600;6.456;2022-10-16T07:14:29;4.32;;;1.50;;
28298;SDS011;15565;52.600;6.456;2022-10-16T07:17:18;3.67;;;1.23;;
28298;SDS011;15565;52.600;6.456;2022-10-16T07:20:06;3.78;;;1.35;;
28298;SDS011;15565;52.600;6.456;2022-10-16T07:22:54;3.13;;;1.00;;
28298;SDS011;15565;52.600;6.456;2022-10-16T07:25:41;4.78;;;1.30;;
28298;SDS011;15565;52.600;6.456;2022-10-16T07:28:29;6.05;;;1.30;;
28298;SDS011;15565;52.600;6.456;2022-10-16T07:31:18;9.43;;;1.65;;
28298;SDS011;15565;52.600;6.456;2022-10-16T07:34:05;6.22;;;1.38;;
28298;SDS011;15565;52.600;6.456;2022-10-16T07:36:52;4.70;;;1.48;;
28298;SDS011;15565;52.600;6.456;2022-10-16T07:39:41;4.22;;;1.30;;
28298;SDS011;15565;52.600;6.456;2022-10-16T07:42:28;3.10;;;1.23;;
28298;SDS011;15565;52.600;6.456;2022-10-16T07:45:15;7.53;;;1.17;;
28298;SDS011;15565;52.600;6.456;2022-10-16T07:48:02;9.82;;;1.52;;
28298;SDS011;15565;52.600;6.456;2022-10-16T07:50:50;3.13;;;1.02;;
28298;SDS011;15565;52.600;6.456;2022-10-16T07:53:37;2.30;;;1.15;;
28298;SDS011;15565;52.600;6.456;2022-10-16T07:56:25;5.47;;;1.70;;
28298;SDS011;15565;52.600;6.456;2022-10-16T07:59:13;8.10;;;1.00;;
28298;SDS011;15565;52.600;6.456;2022-10-16T08:02:00;4.13;;;1.23;;
28298;SDS011;15565;52.600;6.456;2022-10-16T08:04:47;6.50;;;1.30;;
28298;SDS011;15565;52.600;6.456;2022-10-16T08:07:34;4.80;;;1.50;;
28298;SDS011;15565;52.600;6.456;2022-10-16T08:10:22;10.65;;;1.40;;
28298;SDS011;15565;52.600;6.456;2022-10-16T08:13:11;4.30;;;1.40;;
28298;SDS011;15565;52.600;6.456;2022-10-16T08:16:00;3.30;;;1.50;;
28298;SDS011;15565;52.600;6.456;2022-10-16T08:18:48;3.65;;;1.50;;
28298;SDS011;15565;52.600;6.456;2022-10-16T08:21:36;3.60;;;1.10;;
28298;SDS011;15565;52.600;6.456;2022-10-16T08:24:23;5.90;;;1.35;;
28298;SDS011;15565;52.600;6.456;2022-10-16T08:27:11;2.25;;;1.30;;
28298;SDS011;15565;52.600;6.456;2022-10-16T08:29:59;2.63;;;1.20;;
28298;SDS011;15565;52.600;6.456;2022-10-16T08:32:47;2.92;;;0.90;;
28298;SDS011;15565;52.600;6.456;2022-10-16T08:35:34;6.10;;;1.65;;
28298;SDS011;15565;52.600;6.456;2022-10-16T08:38:22;7.47;;;1.20;;
28298;SDS011;15565;52.600;6.456;2022-10-16T08:44:47;4.13;;;0.80;;
28298;SDS011;15565;52.600;6.456;2022-10-16T08:47:42;2.25;;;0.70;;
28298;SDS011;15565;52.600;6.456;2022-10-16T08:50:31;3.47;;;0.98;;
28298;SDS011;15565;52.600;6.456;2022-10-16T08:53:20;3.30;;;1.02;;
28298;SDS011;15565;52.600;6.456;2022-10-16T08:56:09;2.97;;;0.88;;
28298;SDS011;15565;52.600;6.456;2022-10-16T08:58:57;5.63;;;0.80;;
28298;SDS011;15565;52.600;6.456;2022-10-16T09:01:49;2.88;;;0.55;;
28298;SDS011;15565;52.600;6.456;2022-10-16T09:04:43;7.35;;;0.63;;
28298;SDS011;15565;52.600;6.456;2022-10-16T09:07:41;2.22;;;0.70;;
28298;SDS011;15565;52.600;6.456;2022-10-16T09:10:35;3.75;;;1.25;;
28298;SDS011;15565;52.600;6.456;2022-10-16T09:13:26;5.47;;;0.75;;
28298;SDS011;15565;52.600;6.456;2022-10-16T09:16:17;2.80;;;0.70;;
28298;SDS011;15565;52.600;6.456;2022-10-16T09:19:09;6.03;;;0.80;;
28298;SDS011;15565;52.600;6.456;2022-10-16T09:22:00;4.03;;;0.85;;
28298;SDS011;15565;52.600;6.456;2022-10-16T09:24:48;4.53;;;0.82;;
28298;SDS011;15565;52.600;6.456;2022-10-16T09:27:35;1.88;;;0.60;;
28298;SDS011;15565;52.600;6.456;2022-10-16T09:30:23;6.13;;;0.70;;
28298;SDS011;15565;52.600;6.456;2022-10-16T09:33:14;2.72;;;0.90;;
28298;SDS011;15565;52.600;6.456;2022-10-16T09:36:02;4.47;;;1.17;;
28298;SDS011;15565;52.600;6.456;2022-10-16T09:39:02;4.75;;;1.00;;
28298;SDS011;15565;52.600;6.456;2022-10-16T09:41:50;1.83;;;0.70;;
28298;SDS011;15565;52.600;6.456;2022-10-16T09:44:37;6.22;;;1.02;;
28298;SDS011;15565;52.600;6.456;2022-10-16T09:47:25;5.60;;;1.00;;
28298;SDS011;15565;52.600;6.456;2022-10-16T09:50:20;7.55;;;1.23;;
28298;SDS011;15565;52.600;6.456;2022-10-16T09:53:10;5.55;;;1.15;;
28298;SDS011;15565;52.600;6.456;2022-10-16T09:56:00;6.50;;;1.08;;
28298;SDS011;15565;52.600;6.456;2022-10-16T09:58:56;2.83;;;0.90;;
28298;SDS011;15565;52.600;6.456;2022-10-16T10:01:44;6.38;;;1.00;;
28298;SDS011;15565;52.600;6.456;2022-10-16T10:04:37;6.57;;;1.38;;
28298;SDS011;15565;52.600;6.456;2022-10-16T10:07:25;11.20;;;1.05;;
28298;SDS011;15565;52.600;6.456;2022-10-16T10:10:19;3.90;;;1.02;;
28298;SDS011;15565;52.600;6.456;2022-10-16T10:13:17;11.55;;;1.27;;
28298;SDS011;15565;52.600;6.456;2022-10-16T10:16:05;6.95;;;1.55;;
28298;SDS011;15565;52.600;6.456;2022-10-16T10:18:57;6.13;;;1.40;;
28298;SDS011;15565;52.600;6.456;2022-10-16T10:21:45;7.00;;;1.13;;
28298;SDS011;15565;52.600;6.456;2022-10-16T10:24:32;5.68;;;1.00;;
28298;SDS011;15565;52.600;6.456;2022-10-16T10:27:19;7.82;;;1.85;;
28298;SDS011;15565;52.600;6.456;2022-10-16T10:30:10;21.38;;;2.00;;
28298;SDS011;15565;52.600;6.456;2022-10-16T10:33:12;9.15;;;1.83;;
28298;SDS011;15565;52.600;6.456;2022-10-16T10:36:05;17.13;;;1.73;;
28298;SDS011;15565;52.600;6.456;2022-10-16T10:38:54;8.90;;;1.50;;
28298;SDS011;15565;52.600;6.456;2022-10-16T10:42:07;11.27;;;1.90;;
28298;SDS011;15565;52.600;6.456;2022-10-16T10:48:06;9.57;;;1.50;;
28298;SDS011;15565;52.600;6.456;2022-10-16T10:51:00;6.43;;;1.45;;
28298;SDS011;15565;52.600;6.456;2022-10-16T10:53:49;12.55;;;1.60;;
28298;SDS011;15565;52.600;6.456;2022-10-16T10:56:41;5.82;;;1.27;;
28298;SDS011;15565;52.600;6.456;2022-10-16T11:02:32;8.73;;;1.17;;
28298;SDS011;15565;52.600;6.456;2022-10-16T11:05:33;9.13;;;1.13;;
28298;SDS011;15565;52.600;6.456;2022-10-16T11:08:26;6.30;;;1.25;;
28298;SDS011;15565;52.600;6.456;2022-10-16T11:11:15;8.48;;;1.60;;
28298;SDS011;15565;52.600;6.456;2022-10-16T11:14:09;10.45;;;1.60;;
28298;SDS011;15565;52.600;6.456;2022-10-16T11:16:58;5.95;;;1.30;;
28298;SDS011;15565;52.600;6.456;2022-10-16T11:19:48;7.78;;;1.02;;
28298;SDS011;15565;52.600;6.456;2022-10-16T11:22:38;13.35;;;1.80;;
28298;SDS011;15565;52.600;6.456;2022-10-16T11:25:26;13.50;;;1.67;;
28298;SDS011;15565;52.600;6.456;2022-10-16T11:28:14;7.95;;;1.33;;
28298;SDS011;15565;52.600;6.456;2022-10-16T11:31:03;12.13;;;1.70;;
28298;SDS011;15565;52.600;6.456;2022-10-16T11:33:53;7.65;;;1.27;;
28298;SDS011;15565;52.600;6.456;2022-10-16T11:36:42;10.18;;;1.50;;
28298;SDS011;15565;52.600;6.456;2022-10-16T11:39:32;6.47;;;1.63;;
28298;SDS011;15565;52.600;6.456;2022-10-16T11:42:22;13.50;;;1.90;;
28298;SDS011;15565;52.600;6.456;2022-10-16T11:45:15;16.45;;;1.75;;
28298;SDS011;15565;52.600;6.456;2022-10-16T11:48:05;16.63;;;1.70;;
28298;SDS011;15565;52.600;6.456;2022-10-16T11:50:56;14.02;;;1.77;;
28298;SDS011;15565;52.600;6.456;2022-10-16T11:53:45;8.35;;;1.20;;
28298;SDS011;15565;52.600;6.456;2022-10-16T11:56:36;12.73;;;1.98;;
28298;SDS011;15565;52.600;6.456;2022-10-16T11:59:28;14.68;;;1.80;;
28298;SDS011;15565;52.600;6.456;2022-10-16T12:05:28;13.20;;;2.63;;
28298;SDS011;15565;52.600;6.456;2022-10-16T12:08:19;13.45;;;1.83;;
28298;SDS011;15565;52.600;6.456;2022-10-16T12:13:25;12.32;;;1.83;;
28298;SDS011;15565;52.600;6.456;2022-10-16T12:21:44;13.25;;;1.58;;
28298;SDS011;15565;52.600;6.456;2022-10-16T12:24:33;11.23;;;1.80;;
28298;SDS011;15565;52.600;6.456;2022-10-16T12:27:22;7.53;;;1.60;;
28298;SDS011;15565;52.600;6.456;2022-10-16T12:30:14;9.45;;;1.45;;
28298;SDS011;15565;52.600;6.456;2022-10-16T12:33:18;7.97;;;1.35;;
28298;SDS011;15565;52.600;6.456;2022-10-16T12:36:08;9.65;;;1.58;;
28298;SDS011;15565;52.600;6.456;2022-10-16T12:38:58;12.18;;;1.73;;
28298;SDS011;15565;52.600;6.456;2022-10-16T12:41:46;8.57;;;1.35;;
28298;SDS011;15565;52.600;6.456;2022-10-16T12:44:33;12.02;;;1.70;;
28298;SDS011;15565;52.600;6.456;2022-10-16T12:47:21;10.27;;;1.75;;
28298;SDS011;15565;52.600;6.456;2022-10-16T12:50:23;14.93;;;1.88;;
28298;SDS011;15565;52.600;6.456;2022-10-16T12:53:17;14.23;;;1.92;;
28298;SDS011;15565;52.600;6.456;2022-10-16T12:56:08;7.22;;;1.45;;
28298;SDS011;15565;52.600;6.456;2022-10-16T12:59:00;9.10;;;1.65;;
28298;SDS011;15565;52.600;6.456;2022-10-16T13:01:58;13.85;;;1.20;;
28298;SDS011;15565;52.600;6.456;2022-10-16T13:04:58;6.45;;;1.30;;
28298;SDS011;15565;52.600;6.456;2022-10-16T13:07:53;10.15;;;1.20;;
28298;SDS011;15565;52.600;6.456;2022-10-16T13:10:46;5.45;;;1.10;;
28298;SDS011;15565;52.600;6.456;2022-10-16T13:13:39;6.80;;;1.02;;
28298;SDS011;15565;52.600;6.456;2022-10-16T13:16:30;7.65;;;1.15;;
28298;SDS011;15565;52.600;6.456;2022-10-16T13:19:24;10.65;;;1.48;;
28298;SDS011;15565;52.600;6.456;2022-10-16T13:22:14;5.63;;;1.13;;
28298;SDS011;15565;52.600;6.456;2022-10-16T13:25:08;7.00;;;1.42;;
28298;SDS011;15565;52.600;6.456;2022-10-16T13:28:00;7.53;;;1.33;;
28298;SDS011;15565;52.600;6.456;2022-10-16T13:30:53;11.77;;;1.50;;
28298;SDS011;15565;52.600;6.456;2022-10-16T13:33:45;8.80;;;1.80;;
28298;SDS011;15565;52.600;6.456;2022-10-16T13:36:34;8.20;;;1.38;;
28298;SDS011;15565;52.600;6.456;2022-10-16T13:39:26;7.88;;;0.98;;
28298;SDS011;15565;52.600;6.456;2022-10-16T13:42:14;9.00;;;1.95;;
28298;SDS011;15565;52.600;6.456;2022-10-16T13:48:06;13.13;;;2.03;;
28298;SDS011;15565;52.600;6.456;2022-10-16T13:51:00;8.20;;;1.38;;
28298;SDS011;15565;52.600;6.456;2022-10-16T13:53:47;7.32;;;2.10;;
28298;SDS011;15565;52.600;6.456;2022-10-16T13:56:34;9.82;;;2.13;;
28298;SDS011;15565;52.600;6.456;2022-10-16T13:59:25;10.00;;;2.25;;
28298;SDS011;15565;52.600;6.456;2022-10-16T14:02:18;9.73;;;1.83;;
28298;SDS011;15565;52.600;6.456;2022-10-16T14:05:08;7.68;;;2.05;;
28298;SDS011;15565;52.600;6.456;2022-10-16T14:07:58;9.93;;;2.15;;
28298;SDS011;15565;52.600;6.456;2022-10-16T14:10:47;7.55;;;2.67;;
28298;SDS011;15565;52.600;6.456;2022-10-16T14:13:36;5.47;;;1.40;;
28298;SDS011;15565;52.600;6.456;2022-10-16T14:16:26;7.82;;;1.60;;
28298;SDS011;15565;52.600;6.456;2022-10-16T14:19:18;5.97;;;1.55;;
28298;SDS011;15565;52.600;6.456;2022-10-16T14:22:18;6.95;;;1.33;;
28298;SDS011;15565;52.600;6.456;2022-10-16T14:25:23;14.73;;;1.92;;
28298;SDS011;15565;52.600;6.456;2022-10-16T14:28:15;10.65;;;1.35;;
28298;SDS011;15565;52.600;6.456;2022-10-16T14:31:14;7.03;;;1.50;;
28298;SDS011;15565;52.600;6.456;2022-10-16T14:37:14;5.55;;;1.00;;
28298;SDS011;15565;52.600;6.456;2022-10-16T14:40:13;5.72;;;1.27;;
28298;SDS011;15565;52.600;6.456;2022-10-16T14:43:02;10.52;;;1.70;;
28298;SDS011;15565;52.600;6.456;2022-10-16T14:45:50;11.93;;;1.73;;
28298;SDS011;15565;52.600;6.456;2022-10-16T14:48:39;14.13;;;1.30;;
28298;SDS011;15565;52.600;6.456;2022-10-16T14:51:27;5.15;;;1.20;;
28298;SDS011;15565;52.600;6.456;2022-10-16T14:54:14;8.00;;;1.13;;
28298;SDS011;15565;52.600;6.456;2022-10-16T14:57:03;9.73;;;1.50;;
28298;SDS011;15565;52.600;6.456;2022-10-16T14:59:51;13.30;;;1.70;;
28298;SDS011;15565;52.600;6.456;2022-10-16T15:02:38;5.93;;;1.33;;
28298;SDS011;15565;52.600;6.456;2022-10-16T15:05:28;10.50;;;1.60;;
28298;SDS011;15565;52.600;6.456;2022-10-16T15:08:17;12.57;;;1.42;;
28298;SDS011;15565;52.600;6.456;2022-10-16T15:11:04;3.38;;;0.98;;
28298;SDS011;15565;52.600;6.456;2022-10-16T15:13:53;10.45;;;1.75;;
28298;SDS011;15565;52.600;6.456;2022-10-16T15:16:40;4.10;;;1.05;;
28298;SDS011;15565;52.600;6.456;2022-10-16T15:19:30;8.95;;;1.20;;
28298;SDS011;15565;52.600;6.456;2022-10-16T15:22:17;15.32;;;1.52;;
28298;SDS011;15565;52.600;6.456;2022-10-16T15:25:07;8.77;;;1.38;;
28298;SDS011;15565;52.600;6.456;2022-10-16T15:27:56;6.57;;;1.00;;
28298;SDS011;15565;52.600;6.456;2022-10-16T15:30:45;3.47;;;1.10;;
28298;SDS011;15565;52.600;6.456;2022-10-16T15:33:34;11.43;;;1.33;;
28298;SDS011;15565;52.600;6.456;2022-10-16T15:36:27;9.40;;;1.50;;
28298;SDS011;15565;52.600;6.456;2022-10-16T15:39:18;6.93;;;1.27;;
28298;SDS011;15565;52.600;6.456;2022-10-16T15:42:06;7.97;;;1.60;;
28298;SDS011;15565;52.600;6.456;2022-10-16T15:44:53;10.05;;;1.45;;
28298;SDS011;15565;52.600;6.456;2022-10-16T15:50:31;9.35;;;1.40;;
28298;SDS011;15565;52.600;6.456;2022-10-16T15:53:19;7.03;;;1.42;;
28298;SDS011;15565;52.600;6.456;2022-10-16T15:56:06;11.18;;;1.20;;
28298;SDS011;15565;52.600;6.456;2022-10-16T15:58:55;11.85;;;1.80;;
28298;SDS011;15565;52.600;6.456;2022-10-16T16:01:43;8.23;;;1.50;;
28298;SDS011;15565;52.600;6.456;2022-10-16T16:07:35;9.52;;;1.40;;
28298;SDS011;15565;52.600;6.456;2022-10-16T16:10:22;7.90;;;1.75;;
28298;SDS011;15565;52.600;6.456;2022-10-16T16:13:11;6.38;;;1.90;;
28298;SDS011;15565;52.600;6.456;2022-10-16T16:15:58;12.35;;;1.92;;
28298;SDS011;15565;52.600;6.456;2022-10-16T16:21:34;7.15;;;1.55;;
28298;SDS011;15565;52.600;6.456;2022-10-16T16:24:24;13.10;;;1.95;;
28298;SDS011;15565;52.600;6.456;2022-10-16T16:27:15;8.95;;;2.45;;
28298;SDS011;15565;52.600;6.456;2022-10-16T16:30:09;10.88;;;1.80;;
28298;SDS011;15565;52.600;6.456;2022-10-16T16:33:03;10.95;;;2.00;;
28298;SDS011;15565;52.600;6.456;2022-10-16T16:35:50;6.30;;;2.08;;
28298;SDS011;15565;52.600;6.456;2022-10-16T16:38:42;8.05;;;1.73;;
28298;SDS011;15565;52.600;6.456;2022-10-16T16:41:31;10.23;;;1.98;;
28298;SDS011;15565;52.600;6.456;2022-10-16T16:44:18;13.45;;;2.25;;
28298;SDS011;15565;52.600;6.456;2022-10-16T16:47:05;11.30;;;2.20;;
28298;SDS011;15565;52.600;6.456;2022-10-16T16:49:52;12.07;;;2.17;;
28298;SDS011;15565;52.600;6.456;2022-10-16T16:55:35;10.60;;;3.35;;
28298;SDS011;15565;52.600;6.456;2022-10-16T16:58:23;8.65;;;3.00;;
28298;SDS011;15565;52.600;6.456;2022-10-16T17:01:10;10.93;;;2.50;;
28298;SDS011;15565;52.600;6.456;2022-10-16T17:04:06;11.35;;;4.53;;
28298;SDS011;15565;52.600;6.456;2022-10-16T17:06:57;17.67;;;5.20;;
28298;SDS011;15565;52.600;6.456;2022-10-16T17:09:45;15.95;;;5.03;;
28298;SDS011;15565;52.600;6.456;2022-10-16T17:12:32;14.05;;;4.18;;
28298;SDS011;15565;52.600;6.456;2022-10-16T17:15:24;16.67;;;4.50;;
28298;SDS011;15565;52.600;6.456;2022-10-16T17:18:12;15.43;;;4.22;;
28298;SDS011;15565;52.600;6.456;2022-10-16T17:20:59;13.07;;;4.13;;
28298;SDS011;15565;52.600;6.456;2022-10-16T17:23:47;11.95;;;3.75;;
28298;SDS011;15565;52.600;6.456;2022-10-16T17:26:34;16.17;;;3.85;;
28298;SDS011;15565;52.600;6.456;2022-10-16T17:29:25;13.18;;;4.13;;
28298;SDS011;15565;52.600;6.456;2022-10-16T17:35:01;15.38;;;4.68;;
28298;SDS011;15565;52.600;6.456;2022-10-16T17:37:48;11.93;;;4.90;;
28298;SDS011;15565;52.600;6.456;2022-10-16T17:40:37;16.63;;;5.45;;
28298;SDS011;15565;52.600;6.456;2022-10-16T17:43:26;15.68;;;5.50;;
28298;SDS011;15565;52.600;6.456;2022-10-16T17:46:14;17.42;;;4.88;;